createdAt,value
2019-05-26T00:00:04.362Z,78.39
2019-05-26T00:02:12.353Z,78.61
2019-05-26T00:04:18.888Z,78.86
2019-05-26T00:06:25.512Z,79.06
2019-05-26T00:08:31.957Z,79.20
2019-05-26T00:10:38.570Z,79.33
2019-05-26T00:12:45.872Z,79.47
2019-05-26T00:14:52.379Z,79.72
2019-05-26T00:16:58.750Z,79.97
2019-05-26T00:19:05.357Z,80.25
2019-05-26T00:21:12.986Z,80.28
2019-05-26T00:23:19.409Z,80.23
2019-05-26T00:25:25.875Z,80.23
2019-05-26T00:27:32.341Z,80.34
2019-05-26T00:29:38.755Z,80.14
2019-05-26T00:31:45.189Z,80.24
2019-05-26T00:33:51.817Z,80.49
2019-05-26T00:35:58.374Z,80.61
2019-05-26T00:38:04.953Z,80.74
2019-05-26T00:40:12.142Z,81.01
2019-05-26T00:42:18.542Z,81.30
2019-05-26T00:44:25.160Z,81.19
2019-05-26T00:46:31.638Z,81.26
2019-05-26T00:48:38.201Z,81.21
2019-05-26T00:50:44.811Z,81.41
2019-05-26T00:52:51.254Z,81.55
2019-05-26T00:54:58.834Z,81.58
2019-05-26T00:57:05.576Z,81.49
2019-05-26T00:59:12.215Z,81.63
2019-05-26T01:01:18.615Z,81.78
2019-05-26T01:03:25.030Z,82.13
2019-05-26T01:05:31.387Z,82.25
2019-05-26T01:07:39.502Z,82.35
2019-05-26T01:09:45.947Z,82.51
2019-05-26T01:11:52.340Z,82.71
2019-05-26T01:13:58.731Z,82.99
2019-05-26T01:16:05.183Z,83.08
2019-05-26T01:18:11.765Z,83.28
2019-05-26T01:20:18.512Z,83.38
2019-05-26T01:22:24.903Z,83.66
2019-05-26T01:24:31.386Z,83.82
2019-05-26T01:26:37.785Z,83.99
2019-05-26T01:28:44.211Z,84.16
2019-05-26T01:30:50.700Z,84.26
2019-05-26T01:32:57.262Z,84.38
2019-05-26T01:35:04.564Z,84.59
2019-05-26T01:37:11.287Z,84.73
2019-05-26T01:39:17.780Z,84.78
2019-05-26T01:41:24.277Z,84.96
2019-05-26T01:43:31.777Z,85.06
2019-05-26T01:45:38.467Z,85.23
2019-05-26T01:47:44.826Z,85.43
2019-05-26T01:49:51.333Z,85.45
2019-05-26T01:51:57.787Z,85.19
2019-05-26T01:54:04.213Z,84.95
2019-05-26T01:56:10.631Z,84.76
2019-05-26T01:58:17.133Z,84.76
2019-05-26T02:00:24.770Z,84.74
2019-05-26T02:02:31.111Z,84.72
2019-05-26T02:04:37.640Z,84.74
2019-05-26T02:06:44.177Z,84.79
2019-05-26T02:08:50.731Z,85.00
2019-05-26T02:10:57.173Z,84.99
2019-05-26T02:13:03.692Z,85.08
2019-05-26T02:15:11.503Z,85.03
2019-05-26T02:17:18.035Z,84.96
2019-05-26T02:19:24.438Z,85.10
2019-05-26T02:21:30.837Z,85.22
2019-05-26T02:23:37.198Z,85.22
2019-05-26T02:25:43.665Z,85.22
2019-05-26T02:27:50.050Z,85.23
2019-05-26T02:29:56.569Z,85.19
2019-05-26T02:32:02.996Z,85.09
2019-05-26T02:34:09.369Z,85.06
2019-05-26T02:36:15.880Z,85.06
2019-05-26T02:38:25.874Z,85.11
2019-05-26T02:40:30.672Z,85.15
2019-05-26T02:42:37.596Z,85.34
2019-05-26T02:44:44.000Z,85.30
2019-05-26T02:46:50.369Z,85.39
2019-05-26T02:48:56.941Z,85.46
2019-05-26T02:51:03.363Z,85.47
2019-05-26T02:53:09.880Z,85.49
2019-05-26T02:55:17.309Z,85.26
2019-05-26T02:57:23.834Z,85.17
2019-05-26T02:59:30.201Z,84.95
2019-05-26T03:01:37.608Z,84.59
2019-05-26T03:03:44.377Z,84.11
2019-05-26T03:05:52.137Z,83.81
2019-05-26T03:07:59.039Z,83.47
2019-05-26T03:10:06.837Z,83.13
2019-05-26T03:12:13.273Z,83.00
2019-05-26T03:14:22.028Z,82.73
2019-05-26T03:16:31.441Z,82.58
2019-05-26T03:18:39.431Z,82.52
2019-05-26T03:20:47.149Z,82.10
2019-05-26T03:22:58.289Z,81.48
2019-05-26T03:25:05.901Z,81.17
2019-05-26T03:27:12.382Z,80.80
2019-05-26T03:29:18.767Z,80.41
2019-05-26T03:31:25.285Z,80.18
2019-05-26T03:33:32.797Z,79.92
2019-05-26T03:35:39.329Z,80.04
2019-05-26T03:37:47.049Z,79.93
2019-05-26T03:39:53.537Z,80.21
2019-05-26T03:41:59.957Z,79.62
2019-05-26T03:44:06.524Z,79.24
2019-05-26T03:46:20.495Z,78.62
2019-05-26T03:48:26.942Z,77.98
2019-05-26T03:50:33.355Z,77.36
2019-05-26T03:52:39.774Z,76.49
2019-05-26T03:54:46.194Z,76.06
2019-05-26T03:56:52.574Z,75.74
2019-05-26T03:58:59.341Z,74.83
2019-05-26T04:01:05.919Z,73.83
2019-05-26T04:03:12.342Z,73.67
2019-05-26T04:05:18.898Z,72.98
2019-05-26T04:07:25.286Z,72.09
2019-05-26T04:09:31.822Z,70.92
2019-05-26T04:11:38.261Z,68.86
2019-05-26T04:13:44.749Z,67.91
2019-05-26T04:15:54.113Z,66.95
2019-05-26T04:18:00.517Z,62.03
2019-05-26T04:20:07.824Z,57.52
2019-05-26T04:22:14.266Z,55.58
2019-05-26T04:24:20.673Z,52.04
2019-05-26T04:26:27.048Z,48.64
2019-05-26T04:28:33.444Z,45.88
2019-05-26T04:30:39.894Z,43.50
2019-05-26T04:32:46.341Z,43.13
2019-05-26T04:34:52.736Z,41.24
2019-05-26T04:36:59.203Z,39.33
2019-05-26T04:39:07.930Z,38.27
2019-05-26T04:41:13.640Z,37.42
2019-05-26T04:43:19.899Z,35.59
2019-05-26T04:45:26.349Z,34.36
2019-05-26T04:47:32.718Z,32.39
2019-05-26T04:49:39.229Z,32.05
2019-05-26T04:51:45.632Z,31.26
2019-05-26T04:53:52.041Z,31.89
2019-05-26T04:55:58.549Z,32.75
2019-05-26T04:58:05.425Z,35.33
2019-05-26T05:00:12.439Z,36.47
2019-05-26T05:02:18.832Z,37.40
2019-05-26T05:04:25.319Z,37.72
2019-05-26T05:06:31.791Z,37.47
2019-05-26T05:08:38.322Z,38.05
2019-05-26T05:10:44.731Z,37.16
2019-05-26T05:12:51.322Z,36.64
2019-05-26T05:14:57.727Z,36.38
2019-05-26T05:17:04.231Z,35.57
2019-05-26T05:19:10.607Z,35.69
2019-05-26T05:21:17.081Z,34.91
2019-05-26T05:23:23.562Z,35.77
2019-05-26T05:25:30.034Z,36.75
2019-05-26T05:27:36.548Z,37.99
2019-05-26T05:29:43.013Z,37.97
2019-05-26T05:31:49.462Z,38.45
2019-05-26T05:33:55.830Z,38.20
2019-05-26T05:36:02.274Z,37.03
2019-05-26T05:38:08.680Z,35.06
2019-05-26T05:40:16.190Z,31.89
2019-05-26T05:42:22.909Z,29.48
2019-05-26T05:44:29.373Z,28.32
2019-05-26T05:46:35.821Z,28.05
2019-05-26T05:48:42.248Z,29.47
2019-05-26T05:50:48.693Z,30.59
2019-05-26T05:52:55.213Z,30.07
2019-05-26T05:55:02.544Z,29.79
2019-05-26T05:57:09.103Z,29.61
2019-05-26T05:59:15.475Z,30.42
2019-05-26T06:01:21.852Z,30.31
2019-05-26T06:03:28.277Z,28.36
2019-05-26T06:05:35.764Z,28.13
2019-05-26T06:07:42.152Z,29.08
2019-05-26T06:09:49.731Z,29.79
2019-05-26T06:11:57.186Z,29.41
2019-05-26T06:14:04.139Z,28.83
2019-05-26T06:16:10.550Z,27.85
2019-05-26T06:18:17.005Z,27.88
2019-05-26T06:20:23.502Z,28.83
2019-05-26T06:22:29.957Z,29.35
2019-05-26T06:24:37.540Z,29.92
2019-05-26T06:26:43.955Z,30.39
2019-05-26T06:28:52.451Z,30.55
2019-05-26T06:30:59.724Z,28.66
2019-05-26T06:33:07.865Z,27.77
2019-05-26T06:35:15.688Z,28.83
2019-05-26T06:37:22.170Z,29.93
2019-05-26T06:39:28.746Z,31.80
2019-05-26T06:41:35.181Z,32.54
2019-05-26T06:43:42.363Z,33.74
2019-05-26T06:45:48.874Z,33.28
2019-05-26T06:47:55.459Z,31.73
2019-05-26T06:50:03.676Z,30.38
2019-05-26T06:52:10.158Z,29.38
2019-05-26T06:54:16.565Z,30.50
2019-05-26T06:56:23.033Z,31.43
2019-05-26T06:58:29.435Z,31.53
2019-05-26T07:00:35.831Z,32.19
2019-05-26T07:02:42.320Z,28.31
2019-05-26T07:04:48.828Z,29.87
2019-05-26T07:06:55.179Z,30.26
2019-05-26T07:09:01.622Z,31.29
2019-05-26T07:11:09.467Z,32.16
2019-05-26T07:13:15.908Z,33.89
2019-05-26T07:15:22.631Z,34.75
2019-05-26T07:17:29.249Z,35.39
2019-05-26T07:19:35.692Z,35.31
2019-05-26T07:21:42.076Z,36.03
2019-05-26T07:23:48.522Z,36.40
2019-05-26T07:25:54.918Z,37.23
2019-05-26T07:28:01.438Z,32.70
2019-05-26T07:30:09.508Z,31.77
2019-05-26T07:32:15.925Z,33.90
2019-05-26T07:34:22.455Z,34.22
2019-05-26T07:36:29.084Z,35.40
2019-05-26T07:38:35.467Z,32.59
2019-05-26T07:40:41.934Z,28.17
2019-05-26T07:42:48.373Z,29.04
2019-05-26T07:44:54.793Z,31.01
2019-05-26T07:47:01.220Z,30.96
2019-05-26T07:49:07.971Z,28.23
2019-05-26T07:51:14.456Z,24.04
2019-05-26T07:53:21.525Z,20.45
2019-05-26T07:55:28.509Z,21.63
2019-05-26T07:57:34.970Z,22.45
2019-05-26T07:59:41.450Z,24.36
2019-05-26T08:01:47.904Z,26.79
2019-05-26T08:03:54.366Z,28.01
2019-05-26T08:06:00.880Z,28.91
2019-05-26T08:08:12.698Z,31.03
2019-05-26T08:10:17.197Z,33.50
2019-05-26T08:12:28.187Z,33.85
2019-05-26T08:23:03.607Z,32.93
2019-05-26T08:25:10.942Z,32.41
2019-05-26T08:27:17.337Z,31.43
2019-05-26T08:29:25.288Z,31.65
2019-05-26T08:31:31.767Z,30.81
2019-05-26T08:33:38.190Z,30.38
2019-05-26T08:35:44.672Z,31.36
2019-05-26T08:37:51.048Z,32.38
2019-05-26T08:39:59.083Z,33.52
2019-05-26T08:42:05.765Z,35.22
2019-05-26T08:44:12.232Z,36.06
2019-05-26T08:46:18.997Z,35.56
2019-05-26T08:48:25.424Z,36.02
2019-05-26T08:50:34.254Z,37.16
2019-05-26T08:52:40.348Z,37.77
2019-05-26T08:54:46.837Z,37.35
2019-05-26T08:56:54.775Z,37.52
2019-05-26T08:59:01.146Z,37.68
2019-05-26T09:01:07.605Z,38.61
2019-05-26T09:03:14.141Z,38.50
2019-05-26T09:05:21.678Z,39.04
2019-05-26T09:07:28.122Z,37.58
2019-05-26T09:09:34.625Z,36.99
2019-05-26T09:11:41.126Z,37.42
2019-05-26T09:13:47.495Z,36.83
2019-05-26T09:15:53.896Z,36.73
2019-05-26T09:18:00.316Z,36.60
2019-05-26T09:20:11.583Z,36.45
2019-05-26T09:22:17.745Z,37.33
2019-05-26T09:24:24.181Z,36.39
2019-05-26T09:26:30.551Z,37.18
2019-05-26T09:28:37.001Z,35.90
2019-05-26T09:30:43.419Z,35.69
2019-05-26T09:32:49.930Z,36.11
2019-05-26T09:34:56.379Z,35.60
2019-05-26T09:37:02.934Z,36.30
2019-05-26T09:39:09.782Z,35.88
2019-05-26T09:41:16.578Z,35.66
2019-05-26T09:43:23.070Z,35.78
2019-05-26T09:45:31.122Z,36.16
2019-05-26T09:47:37.752Z,36.75
2019-05-26T09:49:44.184Z,37.01
2019-05-26T09:51:51.786Z,37.60
2019-05-26T09:54:01.636Z,37.13
2019-05-26T09:56:06.523Z,37.33
2019-05-26T09:58:13.004Z,38.47
2019-05-26T10:00:20.441Z,38.65
2019-05-26T10:02:26.867Z,38.95
2019-05-26T10:04:33.377Z,38.49
2019-05-26T10:06:39.781Z,37.95
2019-05-26T10:08:46.403Z,38.21
2019-05-26T10:10:52.857Z,37.63
2019-05-26T10:12:59.333Z,37.49
2019-05-26T10:15:07.845Z,37.77
2019-05-26T10:18:08.777Z,37.67
2019-05-26T10:20:16.448Z,37.48
2019-05-26T10:22:22.950Z,37.83
2019-05-26T10:24:32.025Z,38.31
2019-05-26T10:26:39.021Z,37.42
2019-05-26T10:28:45.389Z,37.71
2019-05-26T10:30:51.891Z,36.90
2019-05-26T10:33:00.899Z,37.42
2019-05-26T10:35:09.683Z,36.88
2019-05-26T10:37:16.129Z,36.65
2019-05-26T10:39:23.689Z,36.48
2019-05-26T10:41:30.138Z,36.73
2019-05-26T10:43:46.814Z,37.13
2019-05-26T10:45:46.156Z,36.50
2019-05-26T10:47:52.546Z,36.28
2019-05-26T10:49:59.148Z,36.91
2019-05-26T10:52:05.808Z,37.35
2019-05-26T10:54:12.329Z,38.03
2019-05-26T10:56:18.766Z,36.37
2019-05-26T10:58:25.223Z,36.59
2019-05-26T11:00:33.060Z,37.12
2019-05-26T11:02:40.037Z,36.47
2019-05-26T11:04:46.455Z,36.46
2019-05-26T11:06:52.821Z,36.76
2019-05-26T11:08:59.249Z,36.55
2019-05-26T11:11:05.816Z,36.46
2019-05-26T11:13:12.259Z,36.79
2019-05-26T11:15:19.445Z,37.15
2019-05-26T11:17:25.884Z,36.84
2019-05-26T11:19:32.305Z,37.27
2019-05-26T11:21:38.679Z,37.51
2019-05-26T11:23:45.103Z,37.96
2019-05-26T11:25:51.503Z,37.33
2019-05-26T11:27:57.973Z,36.96
2019-05-26T11:30:07.348Z,37.01
2019-05-26T11:32:13.737Z,37.76
2019-05-26T11:34:20.175Z,37.41
2019-05-26T11:36:26.551Z,37.30
2019-05-26T11:38:33.824Z,36.95
2019-05-26T11:40:40.561Z,36.67
2019-05-26T11:42:47.082Z,36.66
2019-05-26T11:44:53.491Z,36.92
2019-05-26T11:47:00.134Z,36.88
2019-05-26T11:49:06.644Z,36.98
2019-05-26T11:51:13.067Z,37.73
2019-05-26T11:53:21.057Z,37.76
2019-05-26T11:55:29.374Z,37.14
2019-05-26T11:57:37.153Z,36.75
2019-05-26T11:59:47.129Z,37.53
2019-05-26T12:01:52.014Z,37.38
2019-05-26T12:03:58.529Z,36.26
2019-05-26T12:06:05.178Z,36.36
2019-05-26T12:08:11.610Z,36.79
2019-05-26T12:10:19.915Z,36.03
2019-05-26T12:12:27.872Z,35.96
2019-05-26T12:14:35.621Z,36.20
2019-05-26T12:16:42.161Z,36.52
2019-05-26T12:18:48.551Z,36.25
2019-05-26T12:20:55.019Z,36.25
2019-05-26T12:23:01.436Z,35.82
2019-05-26T12:25:10.698Z,35.77
2019-05-26T12:27:17.217Z,34.85
2019-05-26T12:29:23.547Z,35.39
2019-05-26T12:31:29.927Z,35.65
2019-05-26T12:33:36.410Z,36.28
2019-05-26T12:35:48.663Z,36.90
2019-05-26T12:37:55.062Z,36.24
2019-05-26T12:40:01.445Z,35.97
2019-05-26T12:42:09.349Z,36.47
2019-05-26T12:44:15.789Z,35.55
2019-05-26T12:46:22.208Z,35.44
2019-05-26T12:48:28.704Z,35.92
2019-05-26T12:50:36.498Z,35.54
2019-05-26T12:52:42.965Z,35.49
2019-05-26T12:54:49.391Z,34.95
2019-05-26T12:56:56.566Z,35.22
2019-05-26T12:59:02.962Z,34.99
2019-05-26T13:01:09.458Z,34.17
2019-05-26T13:03:15.945Z,34.23
2019-05-26T13:05:22.858Z,34.41
2019-05-26T13:07:29.448Z,34.11
2019-05-26T13:09:35.975Z,34.45
2019-05-26T13:11:42.481Z,34.21
2019-05-26T13:13:48.850Z,34.64
2019-05-26T13:15:55.319Z,34.65
2019-05-26T13:18:01.897Z,35.30
2019-05-26T13:20:10.268Z,34.53
2019-05-26T13:22:16.828Z,33.96
2019-05-26T13:24:23.264Z,34.24
2019-05-26T13:26:29.706Z,34.13
2019-05-26T13:28:36.220Z,34.21
2019-05-26T13:30:42.648Z,33.79
2019-05-26T13:32:49.113Z,34.00
2019-05-26T13:34:55.604Z,34.42
2019-05-26T13:37:03.717Z,34.52
2019-05-26T13:39:10.530Z,34.95
2019-05-26T13:41:16.964Z,35.00
2019-05-26T13:43:23.466Z,35.19
2019-05-26T13:45:29.828Z,34.79
2019-05-26T13:47:36.275Z,35.04
2019-05-26T13:49:42.732Z,35.60
2019-05-26T13:51:50.530Z,35.57
2019-05-26T13:53:57.166Z,36.66
2019-05-26T13:56:03.537Z,35.22
2019-05-26T13:58:10.026Z,34.95
2019-05-26T14:00:20.446Z,34.64
2019-05-26T14:02:27.027Z,35.01
2019-05-26T14:04:33.474Z,34.90
2019-05-26T14:06:39.872Z,34.46
2019-05-26T14:08:46.283Z,35.00
2019-05-26T14:10:52.809Z,34.17
2019-05-26T14:12:59.814Z,35.34
2019-05-26T14:15:11.090Z,34.91
2019-05-26T14:17:18.896Z,34.67
2019-05-26T14:19:28.504Z,34.34
2019-05-26T14:21:34.961Z,34.59
2019-05-26T14:23:44.846Z,34.61
2019-05-26T14:25:50.503Z,34.64
2019-05-26T14:27:56.936Z,35.60
2019-05-26T14:30:04.706Z,35.46
2019-05-26T14:32:11.202Z,35.21
2019-05-26T14:34:17.679Z,35.45
2019-05-26T14:36:24.136Z,35.42
2019-05-26T14:38:42.914Z,35.38
2019-05-26T14:40:42.221Z,35.46
2019-05-26T14:42:48.584Z,35.58
2019-05-26T14:44:55.069Z,35.48
2019-05-26T14:47:01.616Z,34.95
2019-05-26T14:49:08.146Z,35.74
2019-05-26T14:51:14.562Z,35.74
2019-05-26T14:53:22.281Z,35.91
2019-05-26T14:55:28.702Z,35.69
2019-05-26T14:57:38.107Z,35.77
2019-05-26T14:59:45.820Z,35.84
2019-05-26T15:01:54.016Z,36.04
2019-05-26T15:04:01.279Z,35.45
2019-05-26T15:06:08.685Z,35.55
2019-05-26T15:08:15.047Z,35.38
2019-05-26T15:10:23.215Z,35.66
2019-05-26T15:12:32.709Z,35.83
2019-05-26T15:14:44.705Z,36.23
2019-05-26T15:16:52.013Z,36.54
2019-05-26T15:18:59.919Z,36.82
2019-05-26T15:21:06.319Z,36.43
2019-05-26T15:23:16.068Z,36.22
2019-05-26T15:25:22.443Z,36.78
2019-05-26T15:27:30.247Z,37.52
2019-05-26T15:29:36.656Z,37.37
2019-05-26T15:31:43.089Z,37.48
2019-05-26T15:33:49.570Z,37.37
2019-05-26T15:35:56.055Z,37.88
2019-05-26T15:38:02.523Z,37.76
2019-05-26T15:40:10.314Z,37.73
2019-05-26T15:42:16.786Z,37.92
2019-05-26T15:44:24.237Z,38.08
2019-05-26T15:46:32.186Z,37.57
2019-05-26T15:48:38.568Z,37.12
2019-05-26T15:50:45.047Z,37.07
2019-05-26T15:52:53.406Z,37.58
2019-05-26T15:55:01.149Z,38.07
2019-05-26T15:57:08.662Z,37.89
2019-05-26T15:59:16.546Z,38.29
2019-05-26T16:01:22.911Z,38.36
2019-05-26T16:03:29.659Z,38.75
2019-05-26T16:05:36.282Z,38.89
2019-05-26T16:07:42.701Z,38.89
2019-05-26T16:09:49.475Z,38.89
2019-05-26T16:11:55.974Z,38.58
2019-05-26T16:14:04.162Z,38.92
2019-05-26T16:16:10.582Z,38.54
2019-05-26T16:18:20.299Z,38.14
2019-05-26T16:20:26.790Z,38.42
2019-05-26T16:22:33.273Z,38.22
2019-05-26T16:24:40.968Z,37.80
2019-05-26T16:26:48.355Z,38.04
2019-05-26T16:28:57.518Z,37.05
2019-05-26T16:31:04.045Z,37.28
2019-05-26T16:33:10.396Z,36.84
2019-05-26T16:35:17.571Z,36.90
2019-05-26T16:37:24.019Z,37.47
2019-05-26T16:39:37.073Z,37.63
2019-05-26T16:41:39.396Z,37.87
2019-05-26T16:43:46.736Z,38.01
2019-05-26T16:45:56.243Z,38.77
2019-05-26T16:48:01.170Z,38.18
2019-05-26T16:50:09.590Z,38.59
2019-05-26T16:52:16.114Z,38.78
2019-05-26T16:54:22.750Z,39.49
2019-05-26T16:56:29.150Z,39.34
2019-05-26T16:58:35.727Z,39.35
2019-05-26T17:00:43.833Z,39.50
2019-05-26T17:02:52.559Z,39.53
2019-05-26T17:04:59.159Z,39.88
2019-05-26T17:07:05.733Z,40.04
2019-05-26T17:09:12.238Z,40.06
2019-05-26T17:11:18.697Z,40.29
2019-05-26T17:13:25.195Z,40.47
2019-05-26T17:15:31.658Z,40.91
2019-05-26T17:17:38.231Z,40.87
2019-05-26T17:19:44.678Z,41.10
2019-05-26T17:21:51.128Z,41.30
2019-05-26T17:23:57.707Z,41.19
2019-05-26T17:26:04.142Z,41.60
2019-05-26T17:28:10.664Z,41.64
2019-05-26T17:30:17.705Z,41.86
2019-05-26T17:32:24.195Z,42.25
2019-05-26T17:34:30.571Z,42.42
2019-05-26T17:36:36.950Z,42.09
2019-05-26T17:38:43.526Z,42.37
2019-05-26T17:40:49.984Z,42.40
2019-05-26T17:42:56.520Z,42.47
2019-05-26T17:45:03.034Z,42.66
2019-05-26T17:47:09.548Z,42.71
2019-05-26T17:49:15.949Z,42.72
2019-05-26T17:51:22.374Z,43.02
2019-05-26T17:53:28.819Z,43.11
2019-05-26T17:55:35.256Z,43.50
2019-05-26T17:57:42.195Z,43.82
2019-05-26T17:59:48.645Z,43.92
2019-05-26T18:01:55.125Z,44.31
2019-05-26T18:04:01.497Z,44.47
2019-05-26T18:06:09.320Z,44.75
2019-05-26T18:08:17.909Z,44.95
2019-05-26T18:10:24.781Z,45.10
2019-05-26T18:12:31.261Z,45.38
2019-05-26T18:14:37.827Z,45.54
2019-05-26T18:16:44.235Z,45.81
2019-05-26T18:18:51.161Z,46.04
2019-05-26T18:20:57.681Z,46.16
2019-05-26T18:23:04.142Z,46.43
2019-05-26T18:25:11.611Z,46.93
2019-05-26T18:27:18.216Z,47.26
2019-05-26T18:29:24.917Z,47.64
2019-05-26T18:31:31.420Z,47.90
2019-05-26T18:33:37.850Z,48.81
2019-05-26T18:35:45.041Z,48.83
2019-05-26T18:37:53.527Z,50.03
2019-05-26T18:40:00.083Z,50.91
2019-05-26T18:42:06.909Z,51.02
2019-05-26T18:44:13.323Z,51.90
2019-05-26T18:46:20.179Z,51.75
2019-05-26T18:48:26.657Z,52.43
2019-05-26T18:50:34.772Z,52.55
2019-05-26T18:52:41.424Z,52.99
2019-05-26T18:54:47.870Z,53.07
2019-05-26T18:56:54.321Z,53.59
2019-05-26T18:59:00.679Z,54.15
2019-05-26T19:01:07.513Z,54.23
2019-05-26T19:03:14.029Z,54.59
2019-05-26T19:05:33.104Z,54.92
2019-05-26T19:07:30.645Z,55.26
2019-05-26T19:09:37.205Z,55.54
2019-05-26T19:11:43.640Z,55.71
2019-05-26T19:13:50.165Z,56.06
2019-05-26T19:15:56.623Z,56.89
2019-05-26T19:18:18.675Z,57.44
2019-05-26T19:20:16.516Z,58.02
2019-05-26T19:22:21.010Z,58.02
2019-05-26T19:24:29.573Z,58.32
2019-05-26T19:26:36.047Z,58.61
2019-05-26T19:28:42.600Z,59.35
2019-05-26T19:30:49.061Z,59.83
2019-05-26T19:32:55.513Z,61.32
2019-05-26T19:35:01.909Z,61.69
2019-05-26T19:37:08.606Z,61.59
2019-05-26T19:39:14.998Z,61.73
2019-05-26T19:41:21.459Z,61.65
2019-05-26T19:43:27.958Z,61.73
2019-05-26T19:45:34.443Z,61.11
2019-05-26T19:47:41.030Z,61.35
2019-05-26T19:49:47.594Z,61.18
2019-05-26T19:51:54.036Z,61.30
2019-05-26T19:54:00.602Z,61.42
2019-05-26T19:56:07.212Z,61.46
2019-05-26T19:58:13.894Z,61.29
2019-05-26T20:00:21.675Z,61.68
2019-05-26T20:02:28.198Z,61.58
2019-05-26T20:04:34.673Z,61.88
2019-05-26T20:06:43.851Z,61.72
2019-05-26T20:08:49.432Z,61.91
2019-05-26T20:10:55.935Z,62.05
2019-05-26T20:13:02.485Z,62.36
2019-05-26T20:15:11.145Z,62.66
2019-05-26T20:17:17.617Z,63.24
2019-05-26T20:19:24.129Z,63.62
2019-05-26T20:21:30.645Z,63.93
2019-05-26T20:23:37.222Z,63.63
2019-05-26T20:25:44.038Z,63.40
2019-05-26T20:27:50.449Z,63.94
2019-05-26T20:29:56.949Z,64.28
2019-05-26T20:32:03.536Z,64.16
2019-05-26T20:34:10.161Z,64.22
2019-05-26T20:36:16.699Z,64.36
2019-05-26T20:38:23.236Z,64.35
2019-05-26T20:40:29.792Z,64.64
2019-05-26T20:42:36.271Z,65.28
2019-05-26T20:44:42.768Z,65.00
2019-05-26T20:46:49.365Z,65.08
2019-05-26T20:48:55.881Z,65.52
2019-05-26T20:51:03.480Z,65.46
2019-05-26T20:53:09.878Z,65.82
2019-05-26T20:55:16.602Z,66.09
2019-05-26T20:57:25.325Z,66.51
2019-05-26T20:59:31.897Z,66.92
2019-05-26T21:01:40.287Z,66.88
2019-05-26T21:03:46.706Z,67.30
2019-05-26T21:05:53.155Z,67.67
2019-05-26T21:08:00.687Z,67.51
2019-05-26T21:10:08.479Z,68.29
2019-05-26T21:12:14.937Z,67.95
2019-05-26T21:14:22.407Z,67.95
2019-05-26T21:16:31.958Z,68.10
2019-05-26T21:18:38.375Z,68.35
2019-05-26T21:20:46.475Z,68.42
2019-05-26T21:22:53.110Z,68.60
2019-05-26T21:24:59.487Z,68.82
2019-05-26T21:27:06.028Z,68.97
2019-05-26T21:29:12.658Z,69.45
2019-05-26T21:31:19.105Z,69.50
2019-05-26T21:33:25.655Z,69.44
2019-05-26T21:35:32.052Z,69.51
2019-05-26T21:37:38.638Z,69.63
2019-05-26T21:39:45.128Z,70.05
2019-05-26T21:41:51.716Z,70.34
2019-05-26T21:43:58.266Z,70.53
2019-05-26T21:46:04.860Z,70.95
2019-05-26T21:48:11.334Z,71.05
2019-05-26T21:50:18.320Z,71.07
2019-05-26T21:52:24.806Z,71.22
2019-05-26T21:54:32.491Z,71.42
2019-05-26T21:56:38.995Z,71.34
2019-05-26T21:58:45.415Z,71.41
2019-05-26T22:00:52.695Z,71.53
2019-05-26T22:02:59.228Z,71.65
2019-05-26T22:05:08.036Z,71.71
2019-05-26T22:07:14.620Z,71.83
2019-05-26T22:09:22.590Z,71.78
2019-05-26T22:11:29.104Z,72.13
2019-05-26T22:13:35.509Z,72.43
2019-05-26T22:15:42.009Z,72.37
2019-05-26T22:17:48.558Z,72.14
2019-05-26T22:19:55.002Z,72.31
2019-05-26T22:22:01.573Z,71.89
2019-05-26T22:24:08.098Z,71.71
2019-05-26T22:26:14.662Z,72.15
2019-05-26T22:28:21.158Z,72.13
2019-05-26T22:30:27.599Z,72.13
2019-05-26T22:32:34.182Z,72.44
2019-05-26T22:34:40.740Z,72.44
2019-05-26T22:36:47.186Z,72.44
2019-05-26T22:38:54.959Z,72.44
2019-05-26T22:41:01.520Z,72.41
2019-05-26T22:43:07.997Z,72.48
2019-05-26T22:45:15.023Z,72.37
2019-05-26T22:47:21.446Z,72.04
2019-05-26T22:49:27.902Z,71.96
2019-05-26T22:51:34.423Z,71.89
2019-05-26T22:53:40.945Z,72.20
2019-05-26T22:55:47.540Z,72.37
2019-05-26T22:57:53.919Z,73.05
2019-05-26T23:00:00.565Z,73.39
2019-05-26T23:02:07.250Z,73.47
2019-05-26T23:04:13.851Z,73.31
2019-05-26T23:06:20.367Z,73.19
2019-05-26T23:08:26.914Z,73.31
2019-05-26T23:10:33.370Z,73.16
2019-05-26T23:12:39.901Z,73.06
2019-05-26T23:14:46.437Z,72.67
2019-05-26T23:16:52.941Z,73.21
2019-05-26T23:18:59.431Z,72.95
2019-05-26T23:21:06.075Z,73.04
2019-05-26T23:23:12.555Z,72.68
2019-05-26T23:25:19.164Z,72.42
2019-05-26T23:27:25.732Z,72.37
2019-05-26T23:29:32.165Z,72.49
2019-05-26T23:31:38.630Z,72.10
2019-05-26T23:33:45.040Z,72.44
2019-05-26T23:35:51.563Z,72.98
2019-05-26T23:37:58.104Z,72.73
2019-05-26T23:40:07.739Z,72.69
2019-05-26T23:42:14.287Z,72.42
2019-05-26T23:44:20.722Z,72.30
2019-05-26T23:46:27.263Z,72.28
2019-05-26T23:48:33.785Z,72.12
2019-05-26T23:50:40.271Z,71.84
2019-05-26T23:52:46.796Z,71.89
2019-05-26T23:54:53.242Z,72.20
2019-05-26T23:56:59.696Z,71.74
2019-05-26T23:59:06.250Z,71.29
